(°C)
-4°
-4°
-4°
-4°
-5°
-5°
-5°
(°C)
-12°
-12°
-12°
-12°
-12°
-13°
-13°
NDN
NDN
NDN
NDN
NY
NY
NY
(km/h)
25-44
24-42
24-40
24-37
23-37
23-38
23-39
(mm)
1
1
0
0
0
0
0
(%)
25
25
2
9
9
16
9

Napfelkelte

/ 4.3°
sun-icon
UV 0
08:32
16:07
Hold (fogyó sarló) (320°)
03:58
14:50

METAR 55.6°É 37.27°K (UUWW)-ért

Idő Feltételek Hőmérséklet/
Harmatpont
Szél Látási viszonyok Időjárás Felhők Légnyomás Módosítás Nyers
MVFR -4°C / -7°C 240º 14kt >10km Light Snow 1.00mm precipitation Vertical Visibility of 0ft. 988 No Significant change. Runway 24: Dry snow, 11-25% contamination with 5mm, friction coefficient 0.37. UUWW 011200Z 24007MPS 9999 -SN OVC021 M04/M07 Q0988 R24/420537 NOSIG
VFR -4°C / -7°C 250º 10kt 9000m Light Snow 1.00mm precipitation Vertical Visibility of 0ft. 987 Temporary: Visibility 1100. Showers Snow . Broken Clouds 1200ft. Cumulonimbus . Runway 19: Dry snow, 26-50% contamination with 5mm, friction coefficient 0.37. UUWW 011130Z 25005MPS 9000 -SN OVC034 M04/M07 Q0987 R19/450537 TEMPO 1100 SHSN BKN012CB
MVFR -3°C / -6°C 240º 10kt 9000m Light Snow 1.00mm precipitation Vertical Visibility of 0ft. 987 Temporary: Visibility 1100. Showers Snow . Broken Clouds 1200ft. Cumulonimbus . Runway 19: Dry snow, 26-50% contamination with 5mm, friction coefficient 0.37. UUWW 011100Z 24005MPS 9000 -SN OVC018 M03/M06 Q0987 R19/450537 TEMPO 1100 SHSN BKN012CB
MVFR -3°C / -6°C 230º 14kt 8000m Light Snow 1.00mm precipitation Vertical Visibility of 0ft. 987 Temporary: Visibility 1100. Showers Snow . Broken Clouds 1200ft. Cumulonimbus . Runway 19: Dry snow, 26-50% contamination with 5mm, friction coefficient 0.37. UUWW 011030Z 23007MPS 8000 -SN OVC017 M03/M06 Q0987 R19/450537 TEMPO 1100 SHSN BKN012CB
MVFR -3°C / -6°C 240º 12kt 8000m Light Snow 1.00mm precipitation Vertical Visibility of 0ft. 987 Temporary: Visibility 1100. Showers Snow . Broken Clouds 1200ft. Cumulonimbus . Runway 19: Dry snow, 26-50% contamination with 5mm, friction coefficient 0.37. UUWW 011000Z 24006MPS 8000 -SN OVC018 M03/M06 Q0987 R19/450537 TEMPO 1100 SHSN BKN012CB
MVFR -3°C / -6°C 230º 12kt 5000m Light Snow 1.00mm precipitation Vertical Visibility of 0ft. 987 Temporary: Visibility 1100. Showers Snow . Broken Clouds 1200ft. Cumulonimbus . Runway 19: Dry snow, 26-50% contamination with 5mm, friction coefficient 0.37. UUWW 010930Z 23006MPS 5000 -SN OVC017 M03/M06 Q0987 R19/450537 TEMPO 1100 SHSN BKN012CB
MVFR -3°C / -6°C 230º 10kt 4900m Light Snow 1.00mm precipitation Vertical Visibility of 0ft. 986 Temporary: Visibility 1100. Showers Snow . Broken Clouds 1200ft. Cumulonimbus . Runway 19: Dry snow, 26-50% contamination with 5mm, friction coefficient 0.37. UUWW 010900Z 23005MPS 4900 -SN OVC017 M03/M06 Q0986 R19/450537 TEMPO 1100 SHSN BKN012CB
IFR -3°C / -6°C 230º 14kt 2800m Light Snow 1.00mm precipitation Vertical Visibility of 0ft. 986 Temporary: Visibility 1100. Showers Snow . Broken Clouds 1200ft. Cumulonimbus . Runway 24: Dry snow, 26-50% contamination with 5mm, friction coefficient 0.35. UUWW 010830Z 23007MPS 2800 -SN BKN011 M03/M06 Q0986 R24/450535 TEMPO 1100 SHSN BKN012CB
IFR -3°C / -5°C 230º 12kt 2300m Light Snow 1.00mm precipitation Vertical Visibility of 0ft. 986 Temporary: Visibility 1100. Showers Snow . Broken Clouds 1200ft. Cumulonimbus . Runway 24: Dry snow, 26-50% contamination with 5mm, friction coefficient 0.35. UUWW 010800Z 23006MPS 2300 -SN BKN013 M03/M05 Q0986 R24/450535 TEMPO 1100 SHSN BKN012CB
IFR -3°C / -5°C 230º 12kt 2200m Light Snow 1.00mm precipitation Vertical Visibility of 0ft. 986 Temporary: Visibility 1100. Showers Snow . Broken Clouds 1200ft. Cumulonimbus . Runway 24: Dry snow, 26-50% contamination with 5mm, friction coefficient 0.35. UUWW 010730Z 23006MPS 2200 -SN BKN033 M03/M05 Q0986 R24/450535 TEMPO 1100 SHSN BKN012CB
IFR -4°C / -5°C 220º 12kt 2700m Light Snow 1.00mm precipitation Vertical Visibility of 0ft. 985 Temporary: Visibility 1100. Showers Snow . Broken Clouds 1200ft. Cumulonimbus . Runway 24: Dry snow, 26-50% contamination with 5mm, friction coefficient 0.35. UUWW 010700Z 22006MPS 2700 -SN BKN033 M04/M05 Q0985 R24/450535 TEMPO 1100 SHSN BKN012CB
IFR -4°C / -5°C 220º 10kt 2900m Light Snow 1.00mm precipitation Vertical Visibility of 0ft. 985 Temporary: Visibility 1100. Showers Snow . Broken Clouds 1200ft. Cumulonimbus . Runway 19: Dry snow, 51-100% contamination with 3mm, friction coefficient 0.37. UUWW 010630Z 22005MPS 2900 -SN BKN033 M04/M05 Q0985 R19/490337 TEMPO 1100 SHSN BKN012CB
IFR -4°C / -5°C 220º 10kt 2600m Light Snow 1.00mm precipitation Vertical Visibility of 0ft.
Broken Clouds 3200ft
985 Temporary: Visibility 1100. Showers Snow . Broken Clouds 1200ft. Cumulonimbus . Runway 19: Dry snow, 51-100% contamination with 3mm, friction coefficient 0.37. UUWW 010600Z 22005MPS 2600 -SN FEW013 BKN032 M04/M05 Q0985 R19/490337 TEMPO 1100 SHSN BKN012CB
IFR -4°C / -5°C 220º 10kt 2500m Light Snow 1.00mm precipitation Vertical Visibility of 0ft.
Broken Clouds 3200ft
984 Temporary: Visibility 1100. Showers Snow . Broken Clouds 1200ft. Cumulonimbus . Runway 19: Dry snow, 26-50% contamination with 5mm, friction coefficient 0.37. UUWW 010530Z 22005MPS 2500 -SN FEW011 BKN032 M04/M05 Q0984 R19/450537 TEMPO 1100 SHSN BKN012CB
IFR -3°C / -5°C 220º 10kt 2500m Light Snow 1.00mm precipitation Vertical Visibility of 0ft.
Broken Clouds 3200ft
984 No Significant change. Runway 19: Dry snow, 26-50% contamination with 5mm, friction coefficient 0.37. UUWW 010500Z 22005MPS 2500 -SN FEW013 BKN032 M03/M05 Q0984 R19/450537 NOSIG
IFR -3°C / -5°C 230º 14kt 3200m Light Snow 1.00mm precipitation Vertical Visibility of 0ft.
Broken Clouds 3000ft
984 No Significant change. Runway 24: Dry snow, 51-100% contamination with 5mm, friction coefficient 0.35. UUWW 010430Z 23007MPS 3200 -SN FEW012 BKN030 M03/M05 Q0984 R24/490535 NOSIG
IFR -3°C / -5°C 230º 14kt 3400m Light Snow 1.00mm precipitation Vertical Visibility of 0ft.
Broken Clouds 3100ft
984 No Significant change. Runway 24: Dry snow, 51-100% contamination with 5mm, friction coefficient 0.35. UUWW 010400Z 23007MPS 3400 -SN FEW012 BKN031 M03/M05 Q0984 R24/490535 NOSIG
IFR -3°C / -5°C 230º 14kt 3100m Light Snow 1.00mm precipitation Vertical Visibility of 0ft.
Overcast 3100ft
984 Temporary: Visibility 0700. Heavy Showers Snow . Broken Clouds 1200ft. Cumulonimbus . Runway 24: Dry snow, 51-100% contamination with 5mm, friction coefficient 0.35. UUWW 010330Z 23007MPS 3100 -SN FEW011 OVC031 M03/M05 Q0984 R24/490535 TEMPO 0700 +SHSN BKN012CB
IFR -3°C / -5°C 220º 14kt 2400m Light Snow 1.00mm precipitation Vertical Visibility of 0ft.
Overcast 3000ft
984 Temporary: Visibility 0700. Heavy Showers Snow . Broken Clouds 1200ft. Cumulonimbus . Runway 24: Dry snow, 51-100% contamination with 5mm, friction coefficient 0.35. UUWW 010300Z 22007MPS 2400 -SN FEW011 OVC030 M03/M05 Q0984 R24/490535 TEMPO 0700 +SHSN BKN012CB
IFR -3°C / -5°C 230º 14kt 2400m Light Snow 1.00mm precipitation Vertical Visibility of 0ft.
Overcast 3000ft
983 Temporary: Visibility 0700. Heavy Showers Snow . Broken Clouds 1200ft. Cumulonimbus . Runway 24: Dry snow, 51-100% contamination with 5mm, friction coefficient 0.35. UUWW 010230Z 23007MPS 2400 -SN FEW010 OVC030 M03/M05 Q0983 R24/490535 TEMPO 0700 +SHSN BKN012CB
LIFR -3°C / -4°C 220º 16kt 1600m. Runway 24: Visual range is 2000m. Snow 3.00mm precipitation Vertical Visibility of 0ft.
Overcast 2700ft
983 Temporary: Visibility 0700. Heavy Showers Snow . Broken Clouds 1200ft. Cumulonimbus . Runway 24: Dry snow, 51-100% contamination with 5mm, friction coefficient 0.35. UUWW 010200Z 22008MPS 1600 R24/P2000N SN FEW007 OVC027 M03/M04 Q0983 R24/490535 TEMPO 0700 +SHSN BKN012CB
LIFR -3°C / -4°C 220º 14kt 1100m. Runway 19: Visual range is 2000m and decreasing. Snow 3.00mm precipitation Vertical Visibility of 0ft.
Overcast 2400ft
983 Temporary: Visibility 0700. Heavy Showers Snow . Broken Clouds 1200ft. Cumulonimbus . Runway 19: Dry snow, 51-100% contamination with 5mm, friction coefficient 0.37. UUWW 010130Z 22007MPS 1100 1000S R19/P2000D SN FEW008 OVC024 M03/M04 Q0983 R19/490537 TEMPO 0700 +SHSN BKN012CB
IFR -3°C / -4°C 220º 16kt 1700m Showers Snow 3.00mm precipitation Vertical Visibility of 0ft.
Broken Clouds 2200ft
983 Temporary: Visibility 0700. Heavy Showers Snow . Broken Clouds 1200ft. Cumulonimbus . Runway 19: Dry snow, 51-100% contamination with 5mm, friction coefficient 0.37. UUWW 010100Z 22008MPS 1700 SHSN BKN007 BKN022CB M03/M04 Q0983 R19/490537 TEMPO 0700 +SHSN BKN012CB
LIFR -3°C / -4°C 210º 16kt Gust 25kt 800m. Runway 19: Visual range is 2000m. Heavy Showers Snow 3.00mm precipitation Vertical Visibility of 0ft. 983 Temporary: Visibility 0700. Heavy Showers Snow . Broken Clouds 1200ft. Cumulonimbus . Runway 19: Dry snow, 51-100% contamination with 5mm, friction coefficient 0.37. UUWW 010030Z 21008G13MPS 0800 0750W R19/P2000N +SHSN VV007 M03/M04 Q0983 R19/490537 TEMPO 0700 +SHSN BKN012CB

MVFR

-4°C / -7°C

[Több]
Szél 240º 14kt
Látási viszonyok >10km
Időjárás Light Snow 1.00mm precipitation
Felhők Vertical Visibility of 0ft.
Légnyomás 988
Módosítás No Significant change. Runway 24: Dry snow, 11-25% contamination with 5mm, friction coefficient 0.37.
Nyers UUWW 011200Z 24007MPS 9999 -SN OVC021 M04/M07 Q0988 R24/420537 NOSIG

VFR

-4°C / -7°C

[Több]
Szél 250º 10kt
Látási viszonyok 9000m
Időjárás Light Snow 1.00mm precipitation
Felhők Vertical Visibility of 0ft.
Légnyomás 987
Módosítás Temporary: Visibility 1100. Showers Snow . Broken Clouds 1200ft. Cumulonimbus . Runway 19: Dry snow, 26-50% contamination with 5mm, friction coefficient 0.37.
Nyers UUWW 011130Z 25005MPS 9000 -SN OVC034 M04/M07 Q0987 R19/450537 TEMPO 1100 SHSN BKN012CB

MVFR

-3°C / -6°C

[Több]
Szél 240º 10kt
Látási viszonyok 9000m
Időjárás Light Snow 1.00mm precipitation
Felhők Vertical Visibility of 0ft.
Légnyomás 987
Módosítás Temporary: Visibility 1100. Showers Snow . Broken Clouds 1200ft. Cumulonimbus . Runway 19: Dry snow, 26-50% contamination with 5mm, friction coefficient 0.37.
Nyers UUWW 011100Z 24005MPS 9000 -SN OVC018 M03/M06 Q0987 R19/450537 TEMPO 1100 SHSN BKN012CB

MVFR

-3°C / -6°C

[Több]
Szél 230º 14kt
Látási viszonyok 8000m
Időjárás Light Snow 1.00mm precipitation
Felhők Vertical Visibility of 0ft.
Légnyomás 987
Módosítás Temporary: Visibility 1100. Showers Snow . Broken Clouds 1200ft. Cumulonimbus . Runway 19: Dry snow, 26-50% contamination with 5mm, friction coefficient 0.37.
Nyers UUWW 011030Z 23007MPS 8000 -SN OVC017 M03/M06 Q0987 R19/450537 TEMPO 1100 SHSN BKN012CB

MVFR

-3°C / -6°C

[Több]
Szél 240º 12kt
Látási viszonyok 8000m
Időjárás Light Snow 1.00mm precipitation
Felhők Vertical Visibility of 0ft.
Légnyomás 987
Módosítás Temporary: Visibility 1100. Showers Snow . Broken Clouds 1200ft. Cumulonimbus . Runway 19: Dry snow, 26-50% contamination with 5mm, friction coefficient 0.37.
Nyers UUWW 011000Z 24006MPS 8000 -SN OVC018 M03/M06 Q0987 R19/450537 TEMPO 1100 SHSN BKN012CB

MVFR

-3°C / -6°C

[Több]
Szél 230º 12kt
Látási viszonyok 5000m
Időjárás Light Snow 1.00mm precipitation
Felhők Vertical Visibility of 0ft.
Légnyomás 987
Módosítás Temporary: Visibility 1100. Showers Snow . Broken Clouds 1200ft. Cumulonimbus . Runway 19: Dry snow, 26-50% contamination with 5mm, friction coefficient 0.37.
Nyers UUWW 010930Z 23006MPS 5000 -SN OVC017 M03/M06 Q0987 R19/450537 TEMPO 1100 SHSN BKN012CB

MVFR

-3°C / -6°C

[Több]
Szél 230º 10kt
Látási viszonyok 4900m
Időjárás Light Snow 1.00mm precipitation
Felhők Vertical Visibility of 0ft.
Légnyomás 986
Módosítás Temporary: Visibility 1100. Showers Snow . Broken Clouds 1200ft. Cumulonimbus . Runway 19: Dry snow, 26-50% contamination with 5mm, friction coefficient 0.37.
Nyers UUWW 010900Z 23005MPS 4900 -SN OVC017 M03/M06 Q0986 R19/450537 TEMPO 1100 SHSN BKN012CB

IFR

-3°C / -6°C

[Több]
Szél 230º 14kt
Látási viszonyok 2800m
Időjárás Light Snow 1.00mm precipitation
Felhők Vertical Visibility of 0ft.
Légnyomás 986
Módosítás Temporary: Visibility 1100. Showers Snow . Broken Clouds 1200ft. Cumulonimbus . Runway 24: Dry snow, 26-50% contamination with 5mm, friction coefficient 0.35.
Nyers UUWW 010830Z 23007MPS 2800 -SN BKN011 M03/M06 Q0986 R24/450535 TEMPO 1100 SHSN BKN012CB

IFR

-3°C / -5°C

[Több]
Szél 230º 12kt
Látási viszonyok 2300m
Időjárás Light Snow 1.00mm precipitation
Felhők Vertical Visibility of 0ft.
Légnyomás 986
Módosítás Temporary: Visibility 1100. Showers Snow . Broken Clouds 1200ft. Cumulonimbus . Runway 24: Dry snow, 26-50% contamination with 5mm, friction coefficient 0.35.
Nyers UUWW 010800Z 23006MPS 2300 -SN BKN013 M03/M05 Q0986 R24/450535 TEMPO 1100 SHSN BKN012CB

IFR

-3°C / -5°C

[Több]
Szél 230º 12kt
Látási viszonyok 2200m
Időjárás Light Snow 1.00mm precipitation
Felhők Vertical Visibility of 0ft.
Légnyomás 986
Módosítás Temporary: Visibility 1100. Showers Snow . Broken Clouds 1200ft. Cumulonimbus . Runway 24: Dry snow, 26-50% contamination with 5mm, friction coefficient 0.35.
Nyers UUWW 010730Z 23006MPS 2200 -SN BKN033 M03/M05 Q0986 R24/450535 TEMPO 1100 SHSN BKN012CB

IFR

-4°C / -5°C

[Több]
Szél 220º 12kt
Látási viszonyok 2700m
Időjárás Light Snow 1.00mm precipitation
Felhők Vertical Visibility of 0ft.
Légnyomás 985
Módosítás Temporary: Visibility 1100. Showers Snow . Broken Clouds 1200ft. Cumulonimbus . Runway 24: Dry snow, 26-50% contamination with 5mm, friction coefficient 0.35.
Nyers UUWW 010700Z 22006MPS 2700 -SN BKN033 M04/M05 Q0985 R24/450535 TEMPO 1100 SHSN BKN012CB

IFR

-4°C / -5°C

[Több]
Szél 220º 10kt
Látási viszonyok 2900m
Időjárás Light Snow 1.00mm precipitation
Felhők Vertical Visibility of 0ft.
Légnyomás 985
Módosítás Temporary: Visibility 1100. Showers Snow . Broken Clouds 1200ft. Cumulonimbus . Runway 19: Dry snow, 51-100% contamination with 3mm, friction coefficient 0.37.
Nyers UUWW 010630Z 22005MPS 2900 -SN BKN033 M04/M05 Q0985 R19/490337 TEMPO 1100 SHSN BKN012CB

IFR

-4°C / -5°C

[Több]
Szél 220º 10kt
Látási viszonyok 2600m
Időjárás Light Snow 1.00mm precipitation
Felhők Vertical Visibility of 0ft.
Broken Clouds 3200ft
Légnyomás 985
Módosítás Temporary: Visibility 1100. Showers Snow . Broken Clouds 1200ft. Cumulonimbus . Runway 19: Dry snow, 51-100% contamination with 3mm, friction coefficient 0.37.
Nyers UUWW 010600Z 22005MPS 2600 -SN FEW013 BKN032 M04/M05 Q0985 R19/490337 TEMPO 1100 SHSN BKN012CB

IFR

-4°C / -5°C

[Több]
Szél 220º 10kt
Látási viszonyok 2500m
Időjárás Light Snow 1.00mm precipitation
Felhők Vertical Visibility of 0ft.
Broken Clouds 3200ft
Légnyomás 984
Módosítás Temporary: Visibility 1100. Showers Snow . Broken Clouds 1200ft. Cumulonimbus . Runway 19: Dry snow, 26-50% contamination with 5mm, friction coefficient 0.37.
Nyers UUWW 010530Z 22005MPS 2500 -SN FEW011 BKN032 M04/M05 Q0984 R19/450537 TEMPO 1100 SHSN BKN012CB

IFR

-3°C / -5°C

[Több]
Szél 220º 10kt
Látási viszonyok 2500m
Időjárás Light Snow 1.00mm precipitation
Felhők Vertical Visibility of 0ft.
Broken Clouds 3200ft
Légnyomás 984
Módosítás No Significant change. Runway 19: Dry snow, 26-50% contamination with 5mm, friction coefficient 0.37.
Nyers UUWW 010500Z 22005MPS 2500 -SN FEW013 BKN032 M03/M05 Q0984 R19/450537 NOSIG

IFR

-3°C / -5°C

[Több]
Szél 230º 14kt
Látási viszonyok 3200m
Időjárás Light Snow 1.00mm precipitation
Felhők Vertical Visibility of 0ft.
Broken Clouds 3000ft
Légnyomás 984
Módosítás No Significant change. Runway 24: Dry snow, 51-100% contamination with 5mm, friction coefficient 0.35.
Nyers UUWW 010430Z 23007MPS 3200 -SN FEW012 BKN030 M03/M05 Q0984 R24/490535 NOSIG

IFR

-3°C / -5°C

[Több]
Szél 230º 14kt
Látási viszonyok 3400m
Időjárás Light Snow 1.00mm precipitation
Felhők Vertical Visibility of 0ft.
Broken Clouds 3100ft
Légnyomás 984
Módosítás No Significant change. Runway 24: Dry snow, 51-100% contamination with 5mm, friction coefficient 0.35.
Nyers UUWW 010400Z 23007MPS 3400 -SN FEW012 BKN031 M03/M05 Q0984 R24/490535 NOSIG

IFR

-3°C / -5°C

[Több]
Szél 230º 14kt
Látási viszonyok 3100m
Időjárás Light Snow 1.00mm precipitation
Felhők Vertical Visibility of 0ft.
Overcast 3100ft
Légnyomás 984
Módosítás Temporary: Visibility 0700. Heavy Showers Snow . Broken Clouds 1200ft. Cumulonimbus . Runway 24: Dry snow, 51-100% contamination with 5mm, friction coefficient 0.35.
Nyers UUWW 010330Z 23007MPS 3100 -SN FEW011 OVC031 M03/M05 Q0984 R24/490535 TEMPO 0700 +SHSN BKN012CB

IFR

-3°C / -5°C

[Több]
Szél 220º 14kt
Látási viszonyok 2400m
Időjárás Light Snow 1.00mm precipitation
Felhők Vertical Visibility of 0ft.
Overcast 3000ft
Légnyomás 984
Módosítás Temporary: Visibility 0700. Heavy Showers Snow . Broken Clouds 1200ft. Cumulonimbus . Runway 24: Dry snow, 51-100% contamination with 5mm, friction coefficient 0.35.
Nyers UUWW 010300Z 22007MPS 2400 -SN FEW011 OVC030 M03/M05 Q0984 R24/490535 TEMPO 0700 +SHSN BKN012CB

IFR

-3°C / -5°C

[Több]
Szél 230º 14kt
Látási viszonyok 2400m
Időjárás Light Snow 1.00mm precipitation
Felhők Vertical Visibility of 0ft.
Overcast 3000ft
Légnyomás 983
Módosítás Temporary: Visibility 0700. Heavy Showers Snow . Broken Clouds 1200ft. Cumulonimbus . Runway 24: Dry snow, 51-100% contamination with 5mm, friction coefficient 0.35.
Nyers UUWW 010230Z 23007MPS 2400 -SN FEW010 OVC030 M03/M05 Q0983 R24/490535 TEMPO 0700 +SHSN BKN012CB

LIFR

-3°C / -4°C

[Több]
Szél 220º 16kt
Látási viszonyok 1600m. Runway 24: Visual range is 2000m.
Időjárás Snow 3.00mm precipitation
Felhők Vertical Visibility of 0ft.
Overcast 2700ft
Légnyomás 983
Módosítás Temporary: Visibility 0700. Heavy Showers Snow . Broken Clouds 1200ft. Cumulonimbus . Runway 24: Dry snow, 51-100% contamination with 5mm, friction coefficient 0.35.
Nyers UUWW 010200Z 22008MPS 1600 R24/P2000N SN FEW007 OVC027 M03/M04 Q0983 R24/490535 TEMPO 0700 +SHSN BKN012CB

LIFR

-3°C / -4°C

[Több]
Szél 220º 14kt
Látási viszonyok 1100m. Runway 19: Visual range is 2000m and decreasing.
Időjárás Snow 3.00mm precipitation
Felhők Vertical Visibility of 0ft.
Overcast 2400ft
Légnyomás 983
Módosítás Temporary: Visibility 0700. Heavy Showers Snow . Broken Clouds 1200ft. Cumulonimbus . Runway 19: Dry snow, 51-100% contamination with 5mm, friction coefficient 0.37.
Nyers UUWW 010130Z 22007MPS 1100 1000S R19/P2000D SN FEW008 OVC024 M03/M04 Q0983 R19/490537 TEMPO 0700 +SHSN BKN012CB

IFR

-3°C / -4°C

[Több]
Szél 220º 16kt
Látási viszonyok 1700m
Időjárás Showers Snow 3.00mm precipitation
Felhők Vertical Visibility of 0ft.
Broken Clouds 2200ft
Légnyomás 983
Módosítás Temporary: Visibility 0700. Heavy Showers Snow . Broken Clouds 1200ft. Cumulonimbus . Runway 19: Dry snow, 51-100% contamination with 5mm, friction coefficient 0.37.
Nyers UUWW 010100Z 22008MPS 1700 SHSN BKN007 BKN022CB M03/M04 Q0983 R19/490537 TEMPO 0700 +SHSN BKN012CB

LIFR

-3°C / -4°C

[Több]
Szél 210º 16kt Gust 25kt
Látási viszonyok 800m. Runway 19: Visual range is 2000m.
Időjárás Heavy Showers Snow 3.00mm precipitation
Felhők Vertical Visibility of 0ft.
Légnyomás 983
Módosítás Temporary: Visibility 0700. Heavy Showers Snow . Broken Clouds 1200ft. Cumulonimbus . Runway 19: Dry snow, 51-100% contamination with 5mm, friction coefficient 0.37.
Nyers UUWW 010030Z 21008G13MPS 0800 0750W R19/P2000N +SHSN VV007 M03/M04 Q0983 R19/490537 TEMPO 0700 +SHSN BKN012CB

TAF 55.6°É 37.27°K (UUWW)-ért

From till


Maximum Temperature -3ºC on . Minimum Temperature -9ºC on .
From till Wind 240º 14kt. Visibility 3100m. Light Snow . Broken Clouds 1600ft.
Temporarly from till Wind 270º 16kt. Gust 29kt. Visibility 692.016m. Heavy Showers Snow blowing Snow . Broken Clouds 500ft. Broken Clouds 1600ft.
Becoming from till Wind 300º 10kt. Visibility 6000m. Light Snow . Broken Clouds 1600ft.
Becoming from till Wind 220º 10kt. Visibility 6000m. Light Snow . Broken Clouds 1600ft.

Nyers: TAF UUWW 011057Z 0112/0212 24007MPS 3100 -SN BKN016 TXM03/0112Z TNM09/0202Z TEMPO 0112/0116 27008G15MPS 0700 +SHSN BLSN BKN005 BKN016CB BECMG 0116/0118 30005MPS 6000 -SN BECMG 0203/0205 22005MPS

Aktuális műholdas és esőképek ezen a helyen: 55.6°É 37.27°K

A helyszín jelölő a következő helyen van elhelyezve: 55.6°É 37.27°K. [Több]

A valós idejű műholdas kép ötvözi a nappali látható fényt az éjszakai infravörös sugárzással. Éjjel a kép nem sötét, mivel az infravörös sugárzás képes érzékelni a hőmérséklet-különbségeket. Sajnos az alacsony felhőket és a ködöt nehéz megkülönböztetni a talaj hőmérsékletétől, így az éjszaka folyamán szinte láthatatlanok lehetnek. A Meteosat európai műholdképei valós időben frissülnek minden 5 percben. A GOES-16/GOES-17 (Észak- és Dél-Amerika) és Himawari (Ázsia) képei 10 percenként frissülnek.

Minden jog fenntartva 2021 EUMETSAT / meteoblue. / Minden jog fenntartva 2021 meteoblue

Radarkép és ultrarövid távú csapadék-előrejelzés a következő helyhez: 55.6°É 37.27°K

Szitáló eső
Enyhe
Mérsékelt
Erős
Nagyon nehéz
Jégeső

A helyzetjelző helye: 55.6°É 37.27°K. Ez az animáció bemutatja a csapadékradart az elmúlt órára vonatkozóan, valamint előrejelzést az elkövetkező 1 órára. A szitáló eső vagy enyhe hóesés láthatatlan lehet a radar számára. A csapadék intenzitása színkóddal van jelölve, a világoskéktől a narancssárgáig.